Terminal Aerodrome Forecast
Issued by NWS

Home | Current Version | Previous Version | Text Only | Print | Product List | Glossary On
Versions: 1 2 3 4 5 6 7 8 9 10 11 12 13 14 15
000
FTUS43 KTOP 030526
TAFMHK
TAF
KMHK 030526Z 0306/0406 04004KT P6SM BKN100
     FM031500 10007KT P6SM SCT025 OVC040
     FM031800 12007KT P6SM VCSH SCT025 OVC040
     FM032300 13006KT 4SM -SHRA BKN025 OVC040
     FM040200 14005KT 2SM -SHRA BKN015 OVC025=

USA.gov is the U.S. government's official web portal to all federal, state and local government web resources and services.